sensor_id;sensor_type;location;lat;lon;timestamp;pressure;altitude;pressure_sealevel;temperature;humidity
22649;BME280;11491;41.942;24.220;2023-04-03T00:01:35;89287.44;;;2.95;77.31
22649;BME280;11491;41.942;24.220;2023-04-03T00:04:03;89283.41;;;2.89;78.14
22649;BME280;11491;41.942;24.220;2023-04-03T00:06:31;89286.66;;;3.03;78.22
22649;BME280;11491;41.942;24.220;2023-04-03T00:08:58;89290.53;;;3.14;76.77
22649;BME280;11491;41.942;24.220;2023-04-03T00:11:25;89285.41;;;3.09;76.96
22649;BME280;11491;41.942;24.220;2023-04-03T00:13:51;89287.75;;;3.02;76.78
22649;BME280;11491;41.942;24.220;2023-04-03T00:16:18;89290.41;;;3.02;77.66
22649;BME280;11491;41.942;24.220;2023-04-03T00:18:46;89286.97;;;3.01;77.32
22649;BME280;11491;41.942;24.220;2023-04-03T00:21:13;89251.91;;;2.84;76.97
22649;BME280;11491;41.942;24.220;2023-04-03T00:23:40;89281.69;;;3.01;77.15
22649;BME280;11491;41.942;24.220;2023-04-03T00:26:07;89276.25;;;2.98;77.65
22649;BME280;11491;41.942;24.220;2023-04-03T00:28:34;89280.13;;;3.00;77.71
22649;BME280;11491;41.942;24.220;2023-04-03T00:31:01;89282.16;;;3.12;77.19
22649;BME280;11491;41.942;24.220;2023-04-03T00:33:27;89273.41;;;3.20;76.56
22649;BME280;11491;41.942;24.220;2023-04-03T00:35:56;89271.28;;;3.05;78.11
22649;BME280;11491;41.942;24.220;2023-04-03T00:38:22;89271.88;;;3.19;77.18
22649;BME280;11491;41.942;24.220;2023-04-03T00:40:49;89272.19;;;3.27;77.66
22649;BME280;11491;41.942;24.220;2023-04-03T00:43:18;89270.91;;;3.33;76.58
22649;BME280;11491;41.942;24.220;2023-04-03T00:45:46;89271.75;;;3.16;77.27
22649;BME280;11491;41.942;24.220;2023-04-03T00:48:16;89262.59;;;3.13;77.91
22649;BME280;11491;41.942;24.220;2023-04-03T00:50:45;89269.41;;;3.14;78.07
22649;BME280;11491;41.942;24.220;2023-04-03T00:53:17;89270.34;;;3.18;78.40
22649;BME280;11491;41.942;24.220;2023-04-03T00:55:46;89269.53;;;3.27;78.18
22649;BME280;11491;41.942;24.220;2023-04-03T00:58:14;89268.25;;;3.41;76.79
22649;BME280;11491;41.942;24.220;2023-04-03T01:00:44;89276.66;;;3.43;77.47
22649;BME280;11491;41.942;24.220;2023-04-03T01:03:13;89273.69;;;3.45;77.23
22649;BME280;11491;41.942;24.220;2023-04-03T01:05:40;89272.56;;;3.63;76.13
22649;BME280;11491;41.942;24.220;2023-04-03T01:08:07;89267.44;;;3.58;75.99
22649;BME280;11491;41.942;24.220;2023-04-03T01:10:35;89268.34;;;3.62;76.11
22649;BME280;11491;41.942;24.220;2023-04-03T01:13:18;89260.28;;;3.50;76.16
22649;BME280;11491;41.942;24.220;2023-04-03T01:15:45;89262.31;;;3.53;76.83
22649;BME280;11491;41.942;24.220;2023-04-03T01:18:12;89261.75;;;3.39;77.34
22649;BME280;11491;41.942;24.220;2023-04-03T01:21:34;89264.69;;;3.46;76.92
22649;BME280;11491;41.942;24.220;2023-04-03T01:24:27;89261.44;;;3.40;76.15
22649;BME280;11491;41.942;24.220;2023-04-03T01:26:59;89265.34;;;3.26;76.89
22649;BME280;11491;41.942;24.220;2023-04-03T01:29:27;89270.78;;;3.20;77.70
22649;BME280;11491;41.942;24.220;2023-04-03T01:31:57;89274.53;;;3.28;77.41
22649;BME280;11491;41.942;24.220;2023-04-03T01:34:24;89270.00;;;3.29;77.43
22649;BME280;11491;41.942;24.220;2023-04-03T01:36:51;89274.03;;;3.35;75.98
22649;BME280;11491;41.942;24.220;2023-04-03T01:39:19;89241.75;;;3.12;75.92
22649;BME280;11491;41.942;24.220;2023-04-03T01:41:46;89267.56;;;3.06;77.13
22649;BME280;11491;41.942;24.220;2023-04-03T01:44:13;89268.03;;;3.08;76.28
22649;BME280;11491;41.942;24.220;2023-04-03T01:46:41;89266.28;;;3.12;76.98
22649;BME280;11491;41.942;24.220;2023-04-03T01:49:09;89266.94;;;3.09;76.94
22649;BME280;11491;41.942;24.220;2023-04-03T01:51:36;89270.34;;;3.18;75.99
22649;BME280;11491;41.942;24.220;2023-04-03T01:54:03;89266.75;;;3.14;76.93
22649;BME280;11491;41.942;24.220;2023-04-03T01:56:29;89265.25;;;2.96;77.81
22649;BME280;11491;41.942;24.220;2023-04-03T01:58:56;89257.19;;;2.84;78.28
22649;BME280;11491;41.942;24.220;2023-04-03T02:01:23;89259.34;;;2.99;77.86
22649;BME280;11491;41.942;24.220;2023-04-03T02:03:51;89269.72;;;3.04;77.34
22649;BME280;11491;41.942;24.220;2023-04-03T02:06:19;89266.00;;;3.05;77.49
22649;BME280;11491;41.942;24.220;2023-04-03T02:08:45;89270.97;;;3.07;77.23
22649;BME280;11491;41.942;24.220;2023-04-03T02:11:12;89267.56;;;2.97;77.16
22649;BME280;11491;41.942;24.220;2023-04-03T02:13:39;89267.41;;;2.85;77.90
22649;BME280;11491;41.942;24.220;2023-04-03T02:16:07;89266.03;;;2.70;78.75
22649;BME280;11491;41.942;24.220;2023-04-03T02:18:35;89262.63;;;2.61;80.02
22649;BME280;11491;41.942;24.220;2023-04-03T02:21:02;89260.28;;;2.68;79.98
22649;BME280;11491;41.942;24.220;2023-04-03T02:23:30;89258.88;;;2.62;79.63
22649;BME280;11491;41.942;24.220;2023-04-03T02:26:08;89266.97;;;2.57;80.29
22649;BME280;11491;41.942;24.220;2023-04-03T02:28:35;89260.28;;;2.68;79.71
22649;BME280;11491;41.942;24.220;2023-04-03T02:31:03;89257.47;;;2.82;79.04
22649;BME280;11491;41.942;24.220;2023-04-03T02:33:31;89257.03;;;2.89;78.57
22649;BME280;11491;41.942;24.220;2023-04-03T02:35:58;89252.66;;;2.75;78.41
22649;BME280;11491;41.942;24.220;2023-04-03T02:38:25;89244.41;;;2.86;77.28
22649;BME280;11491;41.942;24.220;2023-04-03T02:40:53;89251.44;;;2.82;77.53
22649;BME280;11491;41.942;24.220;2023-04-03T02:43:21;89245.97;;;2.78;77.46
22649;BME280;11491;41.942;24.220;2023-04-03T02:45:47;89244.75;;;2.75;77.79
22649;BME280;11491;41.942;24.220;2023-04-03T02:48:14;89244.31;;;2.73;77.45
22649;BME280;11491;41.942;24.220;2023-04-03T02:50:42;89240.41;;;2.71;77.63
22649;BME280;11491;41.942;24.220;2023-04-03T02:53:08;89234.97;;;2.67;78.04
22649;BME280;11491;41.942;24.220;2023-04-03T02:55:35;89238.41;;;2.59;78.05
22649;BME280;11491;41.942;24.220;2023-04-03T02:58:03;89226.28;;;2.41;78.43
22649;BME280;11491;41.942;24.220;2023-04-03T03:00:30;89223.78;;;2.35;79.11
22649;BME280;11491;41.942;24.220;2023-04-03T03:02:57;89216.66;;;2.45;79.43
22649;BME280;11491;41.942;24.220;2023-04-03T03:05:23;89217.59;;;2.49;79.29
22649;BME280;11491;41.942;24.220;2023-04-03T03:07:50;89222.41;;;2.55;78.82
22649;BME280;11491;41.942;24.220;2023-04-03T03:10:17;89215.56;;;2.46;78.87
22649;BME280;11491;41.942;24.220;2023-04-03T03:12:44;89211.69;;;2.34;78.69
22649;BME280;11491;41.942;24.220;2023-04-03T03:15:12;89135.06;;;2.05;77.57
22649;BME280;11491;41.942;24.220;2023-04-03T03:17:40;89204.84;;;2.33;77.70
22649;BME280;11491;41.942;24.220;2023-04-03T03:20:08;89139.72;;;1.99;78.08
22649;BME280;11491;41.942;24.220;2023-04-03T03:22:35;89199.56;;;2.33;79.19
22649;BME280;11491;41.942;24.220;2023-04-03T03:25:03;89131.28;;;1.71;79.81
22649;BME280;11491;41.942;24.220;2023-04-03T03:27:30;89197.09;;;2.11;80.16
22649;BME280;11491;41.942;24.220;2023-04-03T03:29:57;89132.38;;;1.79;78.48
22649;BME280;11491;41.942;24.220;2023-04-03T03:32:25;89138.13;;;1.72;78.36
22649;BME280;11491;41.942;24.220;2023-04-03T03:34:51;89221.59;;;2.03;79.32
22649;BME280;11491;41.942;24.220;2023-04-03T03:37:18;89222.22;;;2.00;79.98
22649;BME280;11491;41.942;24.220;2023-04-03T03:39:45;89218.47;;;2.01;80.63
22649;BME280;11491;41.942;24.220;2023-04-03T03:42:12;89228.13;;;2.14;80.17
22649;BME280;11491;41.942;24.220;2023-04-03T03:44:38;89221.91;;;2.10;79.75
22649;BME280;11491;41.942;24.220;2023-04-03T03:47:05;89212.59;;;1.86;79.99
22649;BME280;11491;41.942;24.220;2023-04-03T03:49:36;89228.44;;;2.04;79.21
22649;BME280;11491;41.942;24.220;2023-04-03T03:52:03;89227.31;;;1.96;79.16
22649;BME280;11491;41.942;24.220;2023-04-03T03:54:30;89222.53;;;2.07;79.06
22649;BME280;11491;41.942;24.220;2023-04-03T03:56:56;89231.53;;;2.06;78.82
22649;BME280;11491;41.942;24.220;2023-04-03T03:59:23;89229.31;;;1.90;79.79
22649;BME280;11491;41.942;24.220;2023-04-03T04:01:50;89231.78;;;1.78;80.36
22649;BME280;11491;41.942;24.220;2023-04-03T04:04:17;89239.69;;;1.78;81.07
22649;BME280;11491;41.942;24.220;2023-04-03T04:06:45;89235.50;;;1.77;80.99
22649;BME280;11491;41.942;24.220;2023-04-03T04:09:12;89227.59;;;1.86;80.02
22649;BME280;11491;41.942;24.220;2023-04-03T04:11:39;89239.88;;;1.90;79.73
22649;BME280;11491;41.942;24.220;2023-04-03T04:14:06;89240.59;;;1.73;80.48
22649;BME280;11491;41.942;24.220;2023-04-03T04:16:33;89212.66;;;1.64;80.79
22649;BME280;11491;41.942;24.220;2023-04-03T04:18:59;89234.88;;;1.80;81.03
22649;BME280;11491;41.942;24.220;2023-04-03T04:21:26;89244.97;;;1.78;81.04
22649;BME280;11491;41.942;24.220;2023-04-03T04:23:54;89243.28;;;1.82;80.89
22649;BME280;11491;41.942;24.220;2023-04-03T04:26:21;89237.72;;;1.92;80.95
22649;BME280;11491;41.942;24.220;2023-04-03T04:28:48;89227.50;;;2.00;80.37
22649;BME280;11491;41.942;24.220;2023-04-03T04:31:15;89236.31;;;1.95;81.24
22649;BME280;11491;41.942;24.220;2023-04-03T04:33:41;89249.25;;;2.14;81.10
22649;BME280;11491;41.942;24.220;2023-04-03T04:36:08;89246.44;;;2.19;80.57
22649;BME280;11491;41.942;24.220;2023-04-03T04:38:35;89247.03;;;2.16;80.94
22649;BME280;11491;41.942;24.220;2023-04-03T04:41:03;89238.53;;;2.19;80.66
22649;BME280;11491;41.942;24.220;2023-04-03T04:43:30;89252.06;;;2.26;80.76
22649;BME280;11491;41.942;24.220;2023-04-03T04:46:01;89245.81;;;2.22;81.42
22649;BME280;11491;41.942;24.220;2023-04-03T04:48:28;89240.25;;;2.32;81.61
22649;BME280;11491;41.942;24.220;2023-04-03T04:50:54;89248.19;;;2.41;82.13
22649;BME280;11491;41.942;24.220;2023-04-03T04:53:21;89240.09;;;2.55;81.06
22649;BME280;11491;41.942;24.220;2023-04-03T04:55:48;89244.91;;;2.70;80.02
22649;BME280;11491;41.942;24.220;2023-04-03T04:58:16;89245.22;;;2.77;79.79
22649;BME280;11491;41.942;24.220;2023-04-03T05:00:43;89233.56;;;2.70;80.08
22649;BME280;11491;41.942;24.220;2023-04-03T05:03:10;89250.97;;;2.79;79.73
22649;BME280;11491;41.942;24.220;2023-04-03T05:05:37;89247.22;;;2.80;79.37
22649;BME280;11491;41.942;24.220;2023-04-03T05:08:04;89246.94;;;2.91;79.62
22649;BME280;11491;41.942;24.220;2023-04-03T05:10:31;89260.41;;;2.98;79.67
22649;BME280;11491;41.942;24.220;2023-04-03T05:12:58;89259.47;;;3.11;78.96
22649;BME280;11491;41.942;24.220;2023-04-03T05:15:26;89253.84;;;3.21;78.10
22649;BME280;11491;41.942;24.220;2023-04-03T05:17:53;89245.16;;;3.21;79.11
22649;BME280;11491;41.942;24.220;2023-04-03T05:20:20;89242.19;;;3.31;78.89
22649;BME280;11491;41.942;24.220;2023-04-03T05:22:46;89248.50;;;3.48;77.60
22649;BME280;11491;41.942;24.220;2023-04-03T05:25:13;89248.94;;;3.58;77.91
22649;BME280;11491;41.942;24.220;2023-04-03T05:27:40;89246.78;;;3.52;77.88
22649;BME280;11491;41.942;24.220;2023-04-03T05:30:08;89254.34;;;3.62;77.22
22649;BME280;11491;41.942;24.220;2023-04-03T05:32:36;89253.59;;;3.61;77.60
22649;BME280;11491;41.942;24.220;2023-04-03T05:35:04;89243.19;;;3.56;77.37
22649;BME280;11491;41.942;24.220;2023-04-03T05:37:32;89230.97;;;3.34;77.72
22649;BME280;11491;41.942;24.220;2023-04-03T05:39:59;89264.03;;;3.49;77.68
22649;BME280;11491;41.942;24.220;2023-04-03T05:42:26;89258.56;;;3.54;78.43
22649;BME280;11491;41.942;24.220;2023-04-03T05:44:53;89257.38;;;3.43;78.65
22649;BME280;11491;41.942;24.220;2023-04-03T05:47:20;89252.94;;;3.64;79.42
22649;BME280;11491;41.942;24.220;2023-04-03T05:49:48;89242.75;;;3.84;78.84
22649;BME280;11491;41.942;24.220;2023-04-03T05:52:20;89239.72;;;4.03;78.44
22649;BME280;11491;41.942;24.220;2023-04-03T05:54:47;89239.47;;;4.17;77.93
22649;BME280;11491;41.942;24.220;2023-04-03T05:57:14;89246.03;;;4.40;77.29
22649;BME280;11491;41.942;24.220;2023-04-03T05:59:41;89240.66;;;4.49;77.61
22649;BME280;11491;41.942;24.220;2023-04-03T06:02:10;89251.72;;;4.72;78.16
22649;BME280;11491;41.942;24.220;2023-04-03T06:04:37;89247.78;;;4.78;77.97
22649;BME280;11491;41.942;24.220;2023-04-03T06:07:06;89248.16;;;4.89;77.20
22649;BME280;11491;41.942;24.220;2023-04-03T06:09:33;89252.03;;;4.91;76.00
22649;BME280;11491;41.942;24.220;2023-04-03T06:12:00;89244.53;;;4.93;75.57
22649;BME280;11491;41.942;24.220;2023-04-03T06:14:27;89210.09;;;4.93;74.65
22649;BME280;11491;41.942;24.220;2023-04-03T06:16:54;89235.41;;;5.24;75.20
22649;BME280;11491;41.942;24.220;2023-04-03T06:19:21;89207.53;;;5.18;74.09
22649;BME280;11491;41.942;24.220;2023-04-03T06:21:48;89243.81;;;5.38;74.18
22649;BME280;11491;41.942;24.220;2023-04-03T06:24:17;89241.75;;;5.44;76.23
22649;BME280;11491;41.942;24.220;2023-04-03T06:26:45;89257.56;;;5.65;75.31
22649;BME280;11491;41.942;24.220;2023-04-03T06:29:12;89257.38;;;5.82;74.91
22649;BME280;11491;41.942;24.220;2023-04-03T06:31:39;89256.09;;;6.01;74.10
22649;BME280;11491;41.942;24.220;2023-04-03T06:34:05;89258.13;;;6.16;73.39
22649;BME280;11491;41.942;24.220;2023-04-03T06:36:32;89250.78;;;6.25;73.21
22649;BME280;11491;41.942;24.220;2023-04-03T06:38:59;89233.31;;;6.37;72.80
22649;BME280;11491;41.942;24.220;2023-04-03T06:41:28;89248.63;;;6.68;71.99
22649;BME280;11491;41.942;24.220;2023-04-03T06:43:55;89262.88;;;6.88;71.27
22649;BME280;11491;41.942;24.220;2023-04-03T06:46:24;89231.47;;;6.78;71.72
22649;BME280;11491;41.942;24.220;2023-04-03T06:48:51;89248.78;;;7.00;71.71
22649;BME280;11491;41.942;24.220;2023-04-03T06:51:19;89255.91;;;7.24;72.50
22649;BME280;11491;41.942;24.220;2023-04-03T06:53:47;89260.03;;;7.49;72.83
22649;BME280;11491;41.942;24.220;2023-04-03T06:56:13;89258.88;;;7.63;72.37
22649;BME280;11491;41.942;24.220;2023-04-03T06:58:42;89265.41;;;7.81;71.83
22649;BME280;11491;41.942;24.220;2023-04-03T07:01:10;89260.63;;;8.03;71.05
22649;BME280;11491;41.942;24.220;2023-04-03T07:03:38;89255.81;;;8.24;71.09
22649;BME280;11491;41.942;24.220;2023-04-03T07:06:06;89241.06;;;8.43;71.38
22649;BME280;11491;41.942;24.220;2023-04-03T07:08:34;89243.34;;;8.60;70.26
22649;BME280;11491;41.942;24.220;2023-04-03T07:11:01;89231.78;;;8.72;69.48
22649;BME280;11491;41.942;24.220;2023-04-03T07:13:28;89235.03;;;8.81;70.02
22649;BME280;11491;41.942;24.220;2023-04-03T07:15:56;89231.50;;;8.93;68.74
22649;BME280;11491;41.942;24.220;2023-04-03T07:18:23;89225.59;;;9.03;68.30
22649;BME280;11491;41.942;24.220;2023-04-03T07:20:49;89225.19;;;9.20;68.89
22649;BME280;11491;41.942;24.220;2023-04-03T07:23:16;89223.09;;;9.30;67.94
22649;BME280;11491;41.942;24.220;2023-04-03T07:25:43;89222.66;;;9.47;68.18
22649;BME280;11491;41.942;24.220;2023-04-03T07:28:11;89212.38;;;9.68;66.12
22649;BME280;11491;41.942;24.220;2023-04-03T07:30:49;89211.16;;;9.85;64.77
22649;BME280;11491;41.942;24.220;2023-04-03T07:33:19;89201.22;;;9.86;65.73
22649;BME280;11491;41.942;24.220;2023-04-03T07:35:47;89198.69;;;9.93;64.83
22649;BME280;11491;41.942;24.220;2023-04-03T07:38:14;89201.00;;;10.18;62.30
22649;BME280;11491;41.942;24.220;2023-04-03T07:40:45;89205.94;;;10.39;61.00
22649;BME280;11491;41.942;24.220;2023-04-03T07:43:12;89200.88;;;10.56;60.14
22649;BME280;11491;41.942;24.220;2023-04-03T07:45:39;89199.53;;;10.70;60.60
22649;BME280;11491;41.942;24.220;2023-04-03T07:48:06;89203.94;;;10.85;58.77
22649;BME280;11491;41.942;24.220;2023-04-03T07:50:34;89194.59;;;11.02;57.35
22649;BME280;11491;41.942;24.220;2023-04-03T07:53:01;89133.00;;;10.65;57.37
22649;BME280;11491;41.942;24.220;2023-04-03T07:55:28;89132.59;;;10.63;55.81
22649;BME280;11491;41.942;24.220;2023-04-03T07:57:55;89202.38;;;11.11;56.80
22649;BME280;11491;41.942;24.220;2023-04-03T08:00:22;89195.97;;;10.89;56.19
22649;BME280;11491;41.942;24.220;2023-04-03T08:02:48;89196.91;;;10.73;56.94
22649;BME280;11491;41.942;24.220;2023-04-03T08:05:17;89198.63;;;10.59;56.97
22649;BME280;11491;41.942;24.220;2023-04-03T08:07:45;89204.56;;;10.48;55.93
22649;BME280;11491;41.942;24.220;2023-04-03T08:10:13;89196.84;;;10.43;56.81
22649;BME280;11491;41.942;24.220;2023-04-03T08:12:40;89194.09;;;10.36;57.01
22649;BME280;11491;41.942;24.220;2023-04-03T08:15:08;89183.59;;;10.27;57.94
22649;BME280;11491;41.942;24.220;2023-04-03T08:17:35;89182.13;;;10.30;56.59
22649;BME280;11491;41.942;24.220;2023-04-03T08:20:03;89182.13;;;10.30;59.31
22649;BME280;11491;41.942;24.220;2023-04-03T08:22:32;89172.81;;;10.20;57.08
22649;BME280;11491;41.942;24.220;2023-04-03T08:25:00;89172.03;;;10.20;59.62
22649;BME280;11491;41.942;24.220;2023-04-03T08:27:27;89168.09;;;10.13;58.04
22649;BME280;11491;41.942;24.220;2023-04-03T08:29:54;89153.63;;;10.14;59.47
22649;BME280;11491;41.942;24.220;2023-04-03T08:32:22;89163.03;;;10.28;58.52
22649;BME280;11491;41.942;24.220;2023-04-03T08:34:49;89160.13;;;10.37;57.48
22649;BME280;11491;41.942;24.220;2023-04-03T08:37:16;89170.53;;;10.22;58.98
22649;BME280;11491;41.942;24.220;2023-04-03T08:39:43;89164.03;;;10.20;59.12
22649;BME280;11491;41.942;24.220;2023-04-03T08:42:16;89165.22;;;10.22;58.93
22649;BME280;11491;41.942;24.220;2023-04-03T08:44:49;89155.28;;;10.23;58.79
22649;BME280;11491;41.942;24.220;2023-04-03T08:47:23;89147.34;;;10.03;59.28
22649;BME280;11491;41.942;24.220;2023-04-03T08:49:53;89154.97;;;10.01;59.55
22649;BME280;11491;41.942;24.220;2023-04-03T08:52:27;89154.91;;;9.98;59.65
22649;BME280;11491;41.942;24.220;2023-04-03T08:55:00;89150.31;;;9.98;59.37
22649;BME280;11491;41.942;24.220;2023-04-03T08:57:33;89150.81;;;9.81;59.31
22649;BME280;11491;41.942;24.220;2023-04-03T09:00:04;89149.28;;;9.80;60.81
22649;BME280;11491;41.942;24.220;2023-04-03T09:02:34;89154.19;;;9.78;59.74
22649;BME280;11491;41.942;24.220;2023-04-03T09:05:11;89144.28;;;9.55;61.13
22649;BME280;11491;41.942;24.220;2023-04-03T09:07:43;89146.53;;;9.53;61.40
22649;BME280;11491;41.942;24.220;2023-04-03T09:10:12;89141.91;;;9.50;61.04
22649;BME280;11491;41.942;24.220;2023-04-03T09:12:42;89139.41;;;9.38;61.84
22649;BME280;11491;41.942;24.220;2023-04-03T09:15:19;89129.19;;;9.20;62.32
22649;BME280;11491;41.942;24.220;2023-04-03T09:17:55;89115.28;;;9.11;62.39
22649;BME280;11491;41.942;24.220;2023-04-03T09:20:29;89123.44;;;8.99;62.85
22649;BME280;11491;41.942;24.220;2023-04-03T09:22:58;89138.03;;;9.05;65.01
22649;BME280;11491;41.942;24.220;2023-04-03T09:25:27;89142.66;;;9.08;65.13
22649;BME280;11491;41.942;24.220;2023-04-03T09:27:57;89140.00;;;8.89;65.64
22649;BME280;11491;41.942;24.220;2023-04-03T09:30:25;89140.28;;;9.03;66.24
22649;BME280;11491;41.942;24.220;2023-04-03T09:32:54;89136.75;;;8.99;66.20
22649;BME280;11491;41.942;24.220;2023-04-03T09:35:24;89134.66;;;8.89;65.13
22649;BME280;11491;41.942;24.220;2023-04-03T09:37:53;89132.38;;;8.87;68.01
22649;BME280;11491;41.942;24.220;2023-04-03T09:40:31;89136.91;;;8.87;69.14
22649;BME280;11491;41.942;24.220;2023-04-03T09:43:02;89136.63;;;8.92;70.28
22649;BME280;11491;41.942;24.220;2023-04-03T09:45:31;89146.59;;;8.75;70.97
22649;BME280;11491;41.942;24.220;2023-04-03T09:48:06;89146.31;;;8.61;71.80
22649;BME280;11491;41.942;24.220;2023-04-03T09:50:35;89141.69;;;8.58;71.15
22649;BME280;11491;41.942;24.220;2023-04-03T09:53:07;89146.56;;;8.56;71.37
22649;BME280;11491;41.942;24.220;2023-04-03T09:55:51;89157.66;;;8.58;70.84
22649;BME280;11491;41.942;24.220;2023-04-03T09:58:27;89152.34;;;8.58;71.33
22649;BME280;11491;41.942;24.220;2023-04-03T10:00:57;89146.09;;;8.70;72.20
22649;BME280;11491;41.942;24.220;2023-04-03T10:03:27;89143.66;;;8.80;72.08
22649;BME280;11491;41.942;24.220;2023-04-03T10:05:54;89145.47;;;8.96;72.15
22649;BME280;11491;41.942;24.220;2023-04-03T10:08:25;89157.28;;;9.14;70.79
22649;BME280;11491;41.942;24.220;2023-04-03T10:11:08;89149.53;;;9.09;66.96
22649;BME280;11491;41.942;24.220;2023-04-03T10:13:49;89149.13;;;9.07;71.99
22649;BME280;11491;41.942;24.220;2023-04-03T10:16:18;89154.03;;;9.05;71.06
22649;BME280;11491;41.942;24.220;2023-04-03T10:18:49;89152.03;;;9.21;71.04
22649;BME280;11491;41.942;24.220;2023-04-03T10:21:27;89153.59;;;9.22;67.81
22649;BME280;11491;41.942;24.220;2023-04-03T10:24:03;89148.84;;;9.32;68.25
22649;BME280;11491;41.942;24.220;2023-04-03T10:26:39;89138.53;;;8.91;71.09
22649;BME280;11491;41.942;24.220;2023-04-03T10:29:21;89140.50;;;8.75;70.96
22649;BME280;11491;41.942;24.220;2023-04-03T10:31:53;89147.38;;;8.76;71.23
22649;BME280;11491;41.942;24.220;2023-04-03T10:34:26;89140.25;;;8.64;71.89
22649;BME280;11491;41.942;24.220;2023-04-03T10:37:01;89141.97;;;8.72;71.41
22649;BME280;11491;41.942;24.220;2023-04-03T10:39:37;89142.66;;;8.69;71.91
22649;BME280;11491;41.942;24.220;2023-04-03T10:42:10;89149.38;;;8.63;72.34
22649;BME280;11491;41.942;24.220;2023-04-03T10:44:52;89151.47;;;8.54;72.40
22649;BME280;11491;41.942;24.220;2023-04-03T10:47:28;89151.31;;;8.47;74.00
22649;BME280;11491;41.942;24.220;2023-04-03T10:50:04;89154.34;;;8.29;75.09
22649;BME280;11491;41.942;24.220;2023-04-03T10:52:39;89152.22;;;8.19;75.56
22649;BME280;11491;41.942;24.220;2023-04-03T10:55:21;89157.38;;;8.12;77.29
22649;BME280;11491;41.942;24.220;2023-04-03T10:57:50;89155.34;;;7.89;77.61
22649;BME280;11491;41.942;24.220;2023-04-03T11:00:23;89151.06;;;7.69;79.25
22649;BME280;11491;41.942;24.220;2023-04-03T11:02:55;89143.59;;;7.74;79.71
22649;BME280;11491;41.942;24.220;2023-04-03T11:05:28;89141.38;;;7.61;80.21
22649;BME280;11491;41.942;24.220;2023-04-03T11:08:01;89154.31;;;7.62;81.08
22649;BME280;11491;41.942;24.220;2023-04-03T11:10:36;89154.06;;;7.67;81.40
22649;BME280;11491;41.942;24.220;2023-04-03T11:13:10;89153.28;;;7.67;82.13
22649;BME280;11491;41.942;24.220;2023-04-03T11:15:40;89112.47;;;7.43;82.07
22649;BME280;11491;41.942;24.220;2023-04-03T11:18:11;89143.34;;;7.64;82.25
22649;BME280;11491;41.942;24.220;2023-04-03T11:20:42;89147.28;;;7.70;82.24
22649;BME280;11491;41.942;24.220;2023-04-03T11:23:19;89145.06;;;7.72;83.99
22649;BME280;11491;41.942;24.220;2023-04-03T11:25:50;89153.63;;;7.81;83.86
22649;BME280;11491;41.942;24.220;2023-04-03T11:28:19;89141.59;;;7.87;83.29
22649;BME280;11491;41.942;24.220;2023-04-03T11:30:52;89130.69;;;7.92;83.01
22649;BME280;11491;41.942;24.220;2023-04-03T11:33:35;89128.47;;;7.94;83.38
22649;BME280;11491;41.942;24.220;2023-04-03T11:36:07;89122.03;;;7.95;82.98
22649;BME280;11491;41.942;24.220;2023-04-03T11:38:37;89128.03;;;7.92;83.71
22649;BME280;11491;41.942;24.220;2023-04-03T11:41:07;89123.13;;;7.94;84.41
22649;BME280;11491;41.942;24.220;2023-04-03T11:43:40;89114.88;;;7.99;84.16
22649;BME280;11491;41.942;24.220;2023-04-03T11:46:09;89113.47;;;7.86;83.59
22649;BME280;11491;41.942;24.220;2023-04-03T11:48:48;89101.28;;;7.85;84.28
22649;BME280;11491;41.942;24.220;2023-04-03T11:51:40;89102.81;;;7.86;84.75
22649;BME280;11491;41.942;24.220;2023-04-03T11:54:35;89098.50;;;7.97;84.61
22649;BME280;11491;41.942;24.220;2023-04-03T12:12:29;89068.88;;;7.32;87.00
22649;BME280;11491;41.942;24.220;2023-04-03T12:17:53;89070.22;;;7.10;88.43
22649;BME280;11491;41.942;24.220;2023-04-03T12:20:53;89052.97;;;6.88;90.45
22649;BME280;11491;41.942;24.220;2023-04-03T12:23:28;89058.03;;;6.93;91.04
22649;BME280;11491;41.942;24.220;2023-04-03T12:26:03;89049.13;;;7.01;91.96
22649;BME280;11491;41.942;24.220;2023-04-03T12:28:37;89056.59;;;7.11;91.33
22649;BME280;11491;41.942;24.220;2023-04-03T12:31:08;89053.34;;;7.18;91.25
22649;BME280;11491;41.942;24.220;2023-04-03T12:33:47;89048.13;;;7.22;91.42
22649;BME280;11491;41.942;24.220;2023-04-03T12:36:30;89035.41;;;7.31;90.73
22649;BME280;11491;41.942;24.220;2023-04-03T12:39:14;89029.16;;;7.07;90.35
22649;BME280;11491;41.942;24.220;2023-04-03T12:41:52;89024.97;;;7.06;90.83
22649;BME280;11491;41.942;24.220;2023-04-03T12:44:37;89012.63;;;6.98;90.55
22649;BME280;11491;41.942;24.220;2023-04-03T12:47:22;89027.00;;;6.97;91.65
22649;BME280;11491;41.942;24.220;2023-04-03T12:49:50;89023.91;;;6.95;91.73
22649;BME280;11491;41.942;24.220;2023-04-03T12:52:26;89012.53;;;6.79;91.91
22649;BME280;11491;41.942;24.220;2023-04-03T12:54:56;89018.28;;;6.81;92.87
22649;BME280;11491;41.942;24.220;2023-04-03T12:57:26;89022.03;;;6.80;92.06
22649;BME280;11491;41.942;24.220;2023-04-03T12:59:54;89022.53;;;6.69;92.20
22649;BME280;11491;41.942;24.220;2023-04-03T13:02:23;89026.13;;;6.61;92.84
22649;BME280;11491;41.942;24.220;2023-04-03T13:04:52;89007.66;;;6.53;93.27
22649;BME280;11491;41.942;24.220;2023-04-03T13:07:24;89006.31;;;6.59;93.47
22649;BME280;11491;41.942;24.220;2023-04-03T13:10:03;88998.69;;;6.57;93.10
22649;BME280;11491;41.942;24.220;2023-04-03T13:12:32;88995.59;;;6.55;92.75
22649;BME280;11491;41.942;24.220;2023-04-03T13:15:01;88992.44;;;6.50;93.07
22649;BME280;11491;41.942;24.220;2023-04-03T13:17:30;88991.47;;;6.42;92.96
22649;BME280;11491;41.942;24.220;2023-04-03T13:20:10;88988.06;;;6.41;94.15
22649;BME280;11491;41.942;24.220;2023-04-03T13:22:42;88977.06;;;6.43;93.85
22649;BME280;11491;41.942;24.220;2023-04-03T13:25:15;88980.75;;;6.38;93.57
22649;BME280;11491;41.942;24.220;2023-04-03T13:27:44;88979.91;;;6.34;94.42
22649;BME280;11491;41.942;24.220;2023-04-03T13:30:23;88975.44;;;6.38;94.31
22649;BME280;11491;41.942;24.220;2023-04-03T13:32:51;88963.19;;;6.34;95.33